Time;durP1;ratioP1;P1;durP2;ratioP2;P2;SDS_P1;SDS_P2;PMS_P1;PMS_P2;Temp;Humidity;BMP_temperature;BMP_pressure;BME280_temperature;BME280_humidity;BME280_pressure;Samples;Min_cycle;Max_cycle;Signal;HPM_P1;HPM_P2
2022/07/29 00:02:05;;;;;;;3.75;1.92;;;;;;;;;;5056633;28;20519;-68
2022/07/29 00:04:33;;;;;;;3.85;1.85;;;;;;;;;;5055873;28;20676;-68
2022/07/29 00:06:58;;;;;;;3.95;1.70;;;;;;;;;;5050123;28;20183;-68
2022/07/29 00:09:24;;;;;;;3.55;1.40;;;;;;;;;;5058253;28;20185;-69
2022/07/29 00:11:49;;;;;;;3.33;1.70;;;;;;;;;;5061197;28;20212;-68
2022/07/29 00:14:14;;;;;;;3.47;1.20;;;;;;;;;;5050638;28;20192;-68
2022/07/29 00:16:40;;;;;;;2.63;1.00;;;;;;;;;;5059933;28;20216;-68
2022/07/29 00:19:05;;;;;;;4.18;1.40;;;;;;;;;;5051705;28;20201;-68
2022/07/29 00:21:30;;;;;;;2.80;1.30;;;;;;;;;;5061449;28;20225;-69
2022/07/29 00:23:56;;;;;;;3.75;1.40;;;;;;;;;;5060001;28;20551;-69
2022/07/29 00:26:21;;;;;;;3.35;1.27;;;;;;;;;;5061890;28;20203;-68
2022/07/29 00:28:46;;;;;;;3.28;1.42;;;;;;;;;;5053865;28;20193;-68
2022/07/29 00:31:12;;;;;;;6.82;1.60;;;;;;;;;;5056206;28;20218;-68
2022/07/29 00:33:37;;;;;;;3.47;1.50;;;;;;;;;;5049131;28;20680;-68
2022/07/29 00:36:03;;;;;;;4.97;2.63;;;;;;;;;;5058418;28;20717;-68
2022/07/29 00:38:28;;;;;;;3.67;1.63;;;;;;;;;;5055918;28;20636;-68
2022/07/29 00:40:54;;;;;;;4.72;1.25;;;;;;;;;;5052987;28;20256;-68
2022/07/29 00:43:19;;;;;;;2.88;1.60;;;;;;;;;;5054639;28;20529;-68
2022/07/29 00:45:45;;;;;;;4.93;1.20;;;;;;;;;;5048952;28;20661;-68
2022/07/29 00:48:11;;;;;;;4.00;1.40;;;;;;;;;;5050086;28;20177;-68
2022/07/29 00:50:37;;;;;;;4.78;1.60;;;;;;;;;;5055860;28;20188;-68
2022/07/29 00:53:05;;;;;;;2.65;1.27;;;;;;;;;;5056334;28;20693;-68
2022/07/29 00:55:31;;;;;;;4.45;1.98;;;;;;;;;;5059638;28;20679;-68
2022/07/29 00:57:57;;;;;;;5.65;1.63;;;;;;;;;;5052809;28;20223;-68
2022/07/29 01:00:24;;;;;;;3.80;1.40;;;;;;;;;;5061888;28;20715;-69
2022/07/29 01:02:50;;;;;;;3.13;1.42;;;;;;;;;;5051993;28;20221;-68
2022/07/29 01:05:22;;;;;;;2.88;1.30;;;;;;;;;;5048776;28;20649;-68
2022/07/29 01:07:50;;;;;;;5.57;1.65;;;;;;;;;;5051130;28;20272;-70
2022/07/29 01:10:19;;;;;;;5.47;1.45;;;;;;;;;;5057352;28;20232;-69
2022/07/29 01:12:47;;;;;;;3.47;1.30;;;;;;;;;;5052314;28;20770;-69
2022/07/29 01:15:13;;;;;;;3.83;1.40;;;;;;;;;;5059749;28;20548;-69
2022/07/29 01:17:49;;;;;;;1.65;1.30;;;;;;;;;;5056116;28;20181;-68
2022/07/29 01:20:23;;;;;;;2.40;1.30;;;;;;;;;;5057336;28;20275;-69
2022/07/29 01:23:00;;;;;;;2.00;1.48;;;;;;;;;;5049710;28;20592;-68
2022/07/29 01:25:41;;;;;;;5.47;1.30;;;;;;;;;;5051897;28;20248;-68
2022/07/29 01:28:37;;;;;;;3.95;1.50;;;;;;;;;;5056415;28;20208;-68
2022/07/29 01:31:06;;;;;;;5.13;1.52;;;;;;;;;;5054322;28;20287;-68
2022/07/29 01:33:48;;;;;;;3.92;2.00;;;;;;;;;;5058819;28;20272;-68
2022/07/29 01:36:24;;;;;;;3.50;1.30;;;;;;;;;;5050782;28;20184;-68
2022/07/29 01:38:58;;;;;;;1.70;1.48;;;;;;;;;;5060932;28;20355;-68
2022/07/29 01:41:30;;;;;;;2.83;1.40;;;;;;;;;;5058565;28;20640;-68
2022/07/29 01:44:12;;;;;;;3.05;1.48;;;;;;;;;;5059337;28;20189;-68
2022/07/29 01:46:41;;;;;;;3.92;1.40;;;;;;;;;;5052166;28;20251;-68
2022/07/29 01:49:13;;;;;;;4.50;1.17;;;;;;;;;;5057524;28;20181;-68
2022/07/29 01:51:47;;;;;;;6.82;1.70;;;;;;;;;;5054015;28;20220;-68
2022/07/29 01:54:32;;;;;;;5.32;1.70;;;;;;;;;;5051720;28;20513;-68
2022/07/29 01:56:59;;;;;;;7.07;1.60;;;;;;;;;;5049895;28;20181;-68
2022/07/29 01:59:26;;;;;;;5.75;1.70;;;;;;;;;;5053067;28;20187;-68
2022/07/29 02:01:54;;;;;;;6.93;1.85;;;;;;;;;;5054241;28;20177;-68
2022/07/29 02:04:20;;;;;;;4.72;1.50;;;;;;;;;;5059438;28;20173;-68
2022/07/29 02:06:49;;;;;;;3.28;1.40;;;;;;;;;;5055906;28;20192;-69
2022/07/29 02:09:15;;;;;;;4.70;1.65;;;;;;;;;;5050664;28;20230;-68
2022/07/29 02:11:47;;;;;;;7.07;1.70;;;;;;;;;;5055759;28;20237;-68
2022/07/29 02:14:15;;;;;;;5.97;1.50;;;;;;;;;;5062342;28;20169;-68
2022/07/29 02:16:41;;;;;;;2.80;1.15;;;;;;;;;;5060327;28;20211;-68
2022/07/29 02:19:09;;;;;;;4.18;1.38;;;;;;;;;;5052914;28;20656;-67
2022/07/29 02:21:35;;;;;;;4.50;1.58;;;;;;;;;;5054090;28;20280;-70
2022/07/29 02:24:02;;;;;;;4.28;1.55;;;;;;;;;;5051987;28;20181;-68
2022/07/29 02:26:28;;;;;;;6.50;1.35;;;;;;;;;;5058294;28;20222;-68
2022/07/29 02:28:56;;;;;;;3.47;1.25;;;;;;;;;;5054924;28;20193;-68
2022/07/29 02:31:25;;;;;;;4.97;1.70;;;;;;;;;;5059035;28;20691;-68
2022/07/29 02:33:52;;;;;;;2.97;1.33;;;;;;;;;;5062654;28;20216;-68
2022/07/29 02:36:21;;;;;;;4.43;1.40;;;;;;;;;;5058502;28;20189;-68
2022/07/29 02:38:50;;;;;;;3.80;1.58;;;;;;;;;;5054734;28;20471;-68
2022/07/29 02:41:49;;;;;;;4.13;1.30;;;;;;;;;;5055395;28;20226;-68
2022/07/29 02:44:21;;;;;;;2.38;1.25;;;;;;;;;;5051201;28;21245;-68
2022/07/29 02:46:51;;;;;;;5.10;1.63;;;;;;;;;;5052790;28;20687;-68
2022/07/29 02:49:34;;;;;;;6.25;1.80;;;;;;;;;;5053150;28;20173;-69
2022/07/29 02:52:02;;;;;;;3.50;1.27;;;;;;;;;;5053619;28;20201;-68
2022/07/29 02:54:40;;;;;;;4.50;1.75;;;;;;;;;;5053532;28;20173;-68
2022/07/29 02:57:22;;;;;;;4.88;2.28;;;;;;;;;;5049227;28;20196;-68
2022/07/29 02:59:51;;;;;;;4.18;1.63;;;;;;;;;;5061058;28;20177;-68
2022/07/29 03:02:18;;;;;;;5.07;2.08;;;;;;;;;;5058548;28;20178;-68
2022/07/29 03:04:44;;;;;;;3.70;1.48;;;;;;;;;;5053848;28;20694;-68
2022/07/29 03:07:12;;;;;;;5.15;1.60;;;;;;;;;;5049314;28;20260;-68
2022/07/29 03:09:38;;;;;;;3.80;1.50;;;;;;;;;;5052837;28;20586;-69
2022/07/29 03:12:05;;;;;;;3.17;1.60;;;;;;;;;;5048603;28;20565;-68
2022/07/29 03:14:31;;;;;;;4.50;1.48;;;;;;;;;;5054838;28;20195;-69
2022/07/29 03:16:57;;;;;;;4.72;1.70;;;;;;;;;;5051418;28;20173;-67
2022/07/29 03:19:22;;;;;;;4.07;1.52;;;;;;;;;;5052916;28;20711;-68
2022/07/29 03:21:48;;;;;;;5.00;1.50;;;;;;;;;;5059355;28;20824;-68
2022/07/29 03:24:30;;;;;;;4.00;1.40;;;;;;;;;;5052735;28;20233;-68
2022/07/29 03:26:57;;;;;;;3.80;1.70;;;;;;;;;;5053709;28;20193;-68
2022/07/29 03:29:23;;;;;;;5.57;1.55;;;;;;;;;;5068470;28;20195;-68
2022/07/29 03:31:49;;;;;;;4.22;1.65;;;;;;;;;;5059470;28;20334;-68
2022/07/29 03:34:14;;;;;;;2.35;1.63;;;;;;;;;;5060202;28;20601;-69
2022/07/29 03:36:39;;;;;;;4.45;1.70;;;;;;;;;;5055011;28;20177;-68
2022/07/29 03:39:06;;;;;;;3.53;1.70;;;;;;;;;;5060797;28;20292;-68
2022/07/29 03:41:32;;;;;;;3.40;1.60;;;;;;;;;;5058659;28;20181;-68
2022/07/29 03:43:58;;;;;;;3.72;1.52;;;;;;;;;;5056697;28;20192;-68
2022/07/29 03:46:28;;;;;;;3.53;1.50;;;;;;;;;;5055512;28;20660;-68
2022/07/29 03:48:59;;;;;;;3.00;2.08;;;;;;;;;;5066997;28;20633;-68
2022/07/29 03:51:25;;;;;;;2.22;1.50;;;;;;;;;;5060403;28;20486;-68
2022/07/29 03:53:51;;;;;;;2.05;1.40;;;;;;;;;;5060290;28;20261;-68
2022/07/29 03:56:20;;;;;;;3.53;1.38;;;;;;;;;;5049378;28;20296;-68
2022/07/29 03:58:46;;;;;;;4.78;2.05;;;;;;;;;;5052652;28;20173;-68
2022/07/29 04:01:13;;;;;;;4.43;1.88;;;;;;;;;;5064854;28;20529;-68
2022/07/29 04:03:39;;;;;;;3.78;1.80;;;;;;;;;;5061567;28;20246;-68
2022/07/29 04:06:06;;;;;;;5.55;1.55;;;;;;;;;;5048949;28;20177;-68
2022/07/29 04:08:32;;;;;;;8.32;1.92;;;;;;;;;;5050219;28;20177;-68
2022/07/29 04:10:59;;;;;;;6.18;1.48;;;;;;;;;;5049240;28;20642;-68
2022/07/29 04:13:24;;;;;;;3.72;1.42;;;;;;;;;;5056138;28;20201;-68
2022/07/29 04:15:49;;;;;;;3.67;1.70;;;;;;;;;;5051599;28;20228;-68
2022/07/29 04:18:15;;;;;;;4.35;1.60;;;;;;;;;;5050740;28;20177;-68
2022/07/29 04:20:40;;;;;;;5.13;1.67;;;;;;;;;;5054572;28;20173;-68
2022/07/29 04:23:05;;;;;;;4.95;1.58;;;;;;;;;;5050959;28;20554;-68
2022/07/29 04:25:31;;;;;;;6.72;2.00;;;;;;;;;;5059491;28;20233;-68
2022/07/29 04:28:02;;;;;;;2.72;1.55;;;;;;;;;;5052563;28;20900;-68
2022/07/29 04:30:28;;;;;;;3.75;1.45;;;;;;;;;;5059562;28;20213;-68
2022/07/29 04:32:53;;;;;;;4.00;1.67;;;;;;;;;;5050908;28;20220;-68
2022/07/29 04:35:19;;;;;;;5.07;1.73;;;;;;;;;;5051056;28;20574;-68
2022/07/29 04:37:45;;;;;;;3.20;1.80;;;;;;;;;;5051148;28;20264;-68
2022/07/29 04:40:11;;;;;;;4.93;1.75;;;;;;;;;;5053888;28;20267;-68
2022/07/29 04:42:37;;;;;;;5.05;1.80;;;;;;;;;;5056601;28;20704;-68
2022/07/29 04:45:02;;;;;;;2.20;1.40;;;;;;;;;;5052150;28;20285;-68
2022/07/29 04:47:28;;;;;;;3.83;1.70;;;;;;;;;;5055853;28;20693;-68
2022/07/29 04:49:53;;;;;;;6.25;1.73;;;;;;;;;;5068114;28;20173;-68
2022/07/29 04:52:18;;;;;;;4.43;1.65;;;;;;;;;;5049167;28;20209;-68
2022/07/29 04:54:44;;;;;;;2.97;1.40;;;;;;;;;;5058045;28;20180;-68
2022/07/29 04:57:09;;;;;;;3.80;1.80;;;;;;;;;;5063382;28;20187;-68
2022/07/29 04:59:34;;;;;;;4.82;1.63;;;;;;;;;;5059883;28;20242;-68
2022/07/29 05:02:00;;;;;;;3.92;1.80;;;;;;;;;;5059485;28;20235;-68
2022/07/29 05:04:25;;;;;;;3.28;1.40;;;;;;;;;;5059415;28;20182;-68
2022/07/29 05:06:50;;;;;;;2.78;1.52;;;;;;;;;;5048223;28;20254;-69
2022/07/29 05:09:16;;;;;;;3.08;1.40;;;;;;;;;;5058114;28;20276;-68
2022/07/29 05:11:41;;;;;;;5.10;2.22;;;;;;;;;;5052180;28;20219;-69
2022/07/29 05:14:06;;;;;;;5.32;1.50;;;;;;;;;;5062267;28;20189;-73
2022/07/29 05:16:32;;;;;;;2.40;1.75;;;;;;;;;;5059337;28;20216;-68
2022/07/29 05:18:57;;;;;;;3.30;1.75;;;;;;;;;;5055445;28;20230;-68
2022/07/29 05:21:22;;;;;;;2.88;1.60;;;;;;;;;;5059199;28;20275;-68
2022/07/29 05:23:48;;;;;;;5.20;1.85;;;;;;;;;;5048877;28;20244;-68
2022/07/29 05:26:13;;;;;;;2.47;1.58;;;;;;;;;;5060216;28;20630;-68
2022/07/29 05:28:38;;;;;;;5.03;2.10;;;;;;;;;;5048648;28;20185;-68
2022/07/29 05:31:04;;;;;;;6.03;2.20;;;;;;;;;;5054900;28;20205;-69
2022/07/29 05:33:29;;;;;;;2.25;1.88;;;;;;;;;;5058651;28;20192;-69
2022/07/29 05:35:55;;;;;;;5.03;1.42;;;;;;;;;;5061272;28;20180;-69
2022/07/29 05:38:20;;;;;;;6.35;1.90;;;;;;;;;;5049258;28;20323;-69
2022/07/29 05:40:46;;;;;;;8.57;2.35;;;;;;;;;;5066090;28;20184;-69
2022/07/29 05:43:11;;;;;;;6.10;1.95;;;;;;;;;;5058435;28;20242;-68
2022/07/29 05:45:38;;;;;;;2.70;1.60;;;;;;;;;;5065188;28;20314;-68
2022/07/29 05:48:04;;;;;;;6.00;2.08;;;;;;;;;;5061327;28;20208;-68
2022/07/29 05:50:29;;;;;;;4.60;1.80;;;;;;;;;;5051910;28;20274;-68
2022/07/29 05:52:54;;;;;;;4.65;1.67;;;;;;;;;;5054761;28;20201;-68
2022/07/29 05:55:19;;;;;;;6.70;1.98;;;;;;;;;;5056547;28;20193;-68
2022/07/29 05:57:45;;;;;;;5.63;1.85;;;;;;;;;;5053859;28;20185;-68
2022/07/29 06:00:11;;;;;;;5.55;1.90;;;;;;;;;;5046745;28;20193;-69
2022/07/29 06:02:36;;;;;;;4.00;1.63;;;;;;;;;;5049182;28;20193;-69
2022/07/29 06:05:02;;;;;;;3.72;1.75;;;;;;;;;;5048759;28;20274;-68
2022/07/29 06:07:27;;;;;;;3.10;1.75;;;;;;;;;;5066831;28;20663;-68
2022/07/29 06:09:53;;;;;;;5.25;1.90;;;;;;;;;;5057466;28;20260;-68
2022/07/29 06:12:19;;;;;;;2.97;1.80;;;;;;;;;;5057703;28;20677;-68
2022/07/29 06:14:45;;;;;;;4.38;2.13;;;;;;;;;;5052084;28;20276;-68
2022/07/29 06:17:11;;;;;;;4.53;1.77;;;;;;;;;;5051286;28;20186;-68
2022/07/29 06:19:37;;;;;;;7.03;1.75;;;;;;;;;;5051013;28;20303;-68
2022/07/29 06:22:02;;;;;;;3.15;2.10;;;;;;;;;;5049937;28;20212;-68
2022/07/29 06:24:28;;;;;;;3.63;2.10;;;;;;;;;;5049609;28;20294;-68
2022/07/29 06:26:53;;;;;;;7.28;2.10;;;;;;;;;;5050540;28;20231;-68
2022/07/29 06:29:18;;;;;;;5.05;1.90;;;;;;;;;;5046740;28;20231;-68
2022/07/29 06:31:44;;;;;;;4.95;1.90;;;;;;;;;;5046024;28;20205;-69
2022/07/29 06:34:09;;;;;;;6.68;2.17;;;;;;;;;;5048861;28;20266;-68
2022/07/29 06:36:36;;;;;;;3.08;1.73;;;;;;;;;;5048382;28;20435;-69
2022/07/29 06:39:04;;;;;;;4.07;2.30;;;;;;;;;;5048978;28;20185;-69
2022/07/29 06:41:30;;;;;;;3.25;2.10;;;;;;;;;;5044538;28;20170;-69
2022/07/29 06:43:56;;;;;;;7.18;2.30;;;;;;;;;;5047246;28;20592;-69
2022/07/29 06:46:21;;;;;;;4.45;2.17;;;;;;;;;;5049272;28;20243;-70
2022/07/29 06:48:47;;;;;;;5.85;2.50;;;;;;;;;;5059515;28;20184;-69
2022/07/29 06:51:13;;;;;;;4.75;2.67;;;;;;;;;;5051298;28;20539;-69
2022/07/29 06:53:39;;;;;;;5.57;2.40;;;;;;;;;;5057309;28;20189;-68
2022/07/29 06:56:08;;;;;;;6.03;3.00;;;;;;;;;;5057770;28;20176;-70
2022/07/29 06:58:34;;;;;;;7.03;2.85;;;;;;;;;;5060405;28;20188;-69
2022/07/29 07:01:02;;;;;;;4.65;2.80;;;;;;;;;;5050493;28;20645;-69
2022/07/29 07:03:28;;;;;;;4.70;3.13;;;;;;;;;;5053567;28;20184;-69
2022/07/29 07:05:54;;;;;;;6.60;3.03;;;;;;;;;;5051102;28;20211;-69
2022/07/29 07:08:21;;;;;;;5.65;3.10;;;;;;;;;;5055236;28;20192;-69
2022/07/29 07:10:47;;;;;;;6.50;2.80;;;;;;;;;;5061291;28;20177;-69
2022/07/29 07:13:13;;;;;;;5.82;3.10;;;;;;;;;;5059133;28;20246;-70
2022/07/29 07:15:38;;;;;;;6.93;3.00;;;;;;;;;;5052686;28;20188;-70
2022/07/29 07:18:08;;;;;;;7.40;3.45;;;;;;;;;;5054312;28;20190;-70
2022/07/29 07:20:35;;;;;;;5.68;3.28;;;;;;;;;;5047473;28;20732;-70
2022/07/29 07:23:00;;;;;;;6.40;3.70;;;;;;;;;;5049927;28;20185;-71
2022/07/29 07:25:26;;;;;;;6.25;3.20;;;;;;;;;;5057002;28;20591;-71
2022/07/29 07:27:51;;;;;;;9.85;4.28;;;;;;;;;;5050765;28;20438;-70
2022/07/29 07:30:17;;;;;;;6.75;3.42;;;;;;;;;;5058543;28;20355;-70
2022/07/29 07:32:42;;;;;;;8.88;3.53;;;;;;;;;;5055758;28;20221;-71
2022/07/29 07:35:09;;;;;;;7.40;3.50;;;;;;;;;;5059919;28;20189;-70
2022/07/29 07:37:34;;;;;;;10.55;3.78;;;;;;;;;;5063314;28;20176;-71
2022/07/29 07:40:00;;;;;;;7.22;3.70;;;;;;;;;;5059850;28;20182;-69
2022/07/29 07:42:25;;;;;;;4.45;2.97;;;;;;;;;;5061492;28;20670;-68
2022/07/29 07:44:51;;;;;;;5.90;3.90;;;;;;;;;;5061881;28;20177;-69
2022/07/29 07:47:19;;;;;;;11.55;4.75;;;;;;;;;;5050937;28;20685;-69
2022/07/29 07:49:48;;;;;;;10.93;4.07;;;;;;;;;;5057503;28;20224;-70
2022/07/29 07:52:16;;;;;;;6.40;3.88;;;;;;;;;;5056807;28;20601;-70
2022/07/29 07:54:42;;;;;;;8.13;3.65;;;;;;;;;;5062489;28;20718;-69
2022/07/29 07:57:08;;;;;;;6.38;4.00;;;;;;;;;;5051004;28;20547;-69
2022/07/29 07:59:33;;;;;;;8.77;3.30;;;;;;;;;;5060637;28;20174;-69
2022/07/29 08:01:59;;;;;;;5.32;3.28;;;;;;;;;;5056063;28;20177;-69
2022/07/29 08:04:25;;;;;;;7.75;3.13;;;;;;;;;;5057922;28;20184;-69
2022/07/29 08:06:50;;;;;;;8.02;3.00;;;;;;;;;;5057295;28;20632;-70
2022/07/29 08:09:16;;;;;;;4.65;3.40;;;;;;;;;;5052923;28;20185;-69
2022/07/29 08:11:41;;;;;;;3.72;2.80;;;;;;;;;;5049609;28;20235;-68
2022/07/29 08:14:06;;;;;;;4.80;3.40;;;;;;;;;;5049183;28;20185;-68
2022/07/29 08:16:32;;;;;;;4.97;3.42;;;;;;;;;;5052557;28;20596;-69
2022/07/29 08:18:57;;;;;;;5.05;3.10;;;;;;;;;;5062437;28;20709;-68
2022/07/29 08:21:24;;;;;;;8.25;3.25;;;;;;;;;;5055865;28;20181;-68
2022/07/29 08:23:52;;;;;;;7.15;3.20;;;;;;;;;;5049889;28;20551;-68
2022/07/29 08:26:18;;;;;;;7.20;3.45;;;;;;;;;;5052917;28;20229;-69
2022/07/29 08:28:45;;;;;;;6.68;3.20;;;;;;;;;;5053150;28;20193;-69
2022/07/29 08:31:12;;;;;;;6.40;3.40;;;;;;;;;;5052939;28;20216;-69
2022/07/29 08:33:38;;;;;;;4.82;3.67;;;;;;;;;;5061285;28;20176;-68
2022/07/29 08:36:03;;;;;;;4.50;3.88;;;;;;;;;;5052737;28;20440;-68
2022/07/29 08:38:29;;;;;;;6.13;4.03;;;;;;;;;;5055240;28;20199;-68
2022/07/29 08:40:54;;;;;;;8.02;4.28;;;;;;;;;;5054888;28;20298;-69
2022/07/29 08:43:19;;;;;;;9.05;4.45;;;;;;;;;;5063723;28;20185;-68
2022/07/29 08:45:50;;;;;;;10.50;4.90;;;;;;;;;;5051646;28;20180;-68
2022/07/29 08:48:19;;;;;;;5.25;4.00;;;;;;;;;;5048011;28;20192;-68
2022/07/29 08:50:45;;;;;;;7.78;4.53;;;;;;;;;;5062452;28;20687;-69
2022/07/29 08:53:13;;;;;;;6.38;4.50;;;;;;;;;;5053412;28;20208;-70
2022/07/29 08:55:47;;;;;;;7.35;4.90;;;;;;;;;;5067559;28;20201;-69
2022/07/29 08:58:13;;;;;;;7.70;4.70;;;;;;;;;;5056861;28;20185;-69
2022/07/29 09:00:43;;;;;;;6.38;4.57;;;;;;;;;;5066592;28;20268;-69
2022/07/29 09:03:12;;;;;;;10.13;5.25;;;;;;;;;;5060916;28;20644;-69
2022/07/29 09:05:41;;;;;;;8.20;4.57;;;;;;;;;;5068354;28;20264;-69
2022/07/29 09:08:07;;;;;;;6.15;3.95;;;;;;;;;;5066909;28;20212;-69
2022/07/29 09:10:35;;;;;;;6.63;4.47;;;;;;;;;;5052608;28;20246;-69
2022/07/29 09:13:00;;;;;;;8.30;5.22;;;;;;;;;;5050477;28;20216;-69
2022/07/29 09:15:26;;;;;;;5.72;4.30;;;;;;;;;;5066096;28;20176;-69
2022/07/29 09:17:51;;;;;;;5.68;4.18;;;;;;;;;;5067236;28;20199;-69
2022/07/29 09:20:19;;;;;;;7.88;4.10;;;;;;;;;;5065323;28;20195;-69
2022/07/29 09:22:48;;;;;;;5.90;4.72;;;;;;;;;;5060510;28;20231;-69
2022/07/29 09:25:14;;;;;;;7.97;4.47;;;;;;;;;;5051819;28;20705;-69
2022/07/29 09:27:40;;;;;;;7.07;4.38;;;;;;;;;;5049727;28;20258;-69
2022/07/29 09:30:10;;;;;;;5.15;4.68;;;;;;;;;;5053327;28;20264;-69
2022/07/29 09:32:55;;;;;;;8.98;4.78;;;;;;;;;;5053188;28;20224;-68
2022/07/29 09:35:23;;;;;;;10.55;4.38;;;;;;;;;;5053976;28;20197;-68
2022/07/29 09:37:49;;;;;;;9.73;4.82;;;;;;;;;;5052406;28;20549;-69
2022/07/29 09:40:19;;;;;;;8.15;4.68;;;;;;;;;;5060443;28;20323;-69
2022/07/29 09:42:46;;;;;;;11.95;4.80;;;;;;;;;;5062945;28;20208;-70
2022/07/29 09:45:13;;;;;;;7.78;4.65;;;;;;;;;;5054516;28;20648;-69
2022/07/29 09:47:51;;;;;;;7.00;3.50;;;;;;;;;;5059656;28;20181;-68
2022/07/29 09:50:19;;;;;;;7.78;5.00;;;;;;;;;;5066445;28;20517;-68
2022/07/29 09:52:49;;;;;;;6.93;4.68;;;;;;;;;;5056340;28;20752;-69
2022/07/29 09:55:16;;;;;;;6.88;3.97;;;;;;;;;;5057256;28;20192;-69
2022/07/29 09:57:42;;;;;;;8.02;4.18;;;;;;;;;;5056035;28;20531;-70
2022/07/29 10:00:10;;;;;;;10.10;4.68;;;;;;;;;;5054009;28;20256;-70
2022/07/29 10:02:37;;;;;;;7.03;4.95;;;;;;;;;;5055971;28;20532;-71
2022/07/29 10:05:05;;;;;;;9.07;4.60;;;;;;;;;;5064809;28;20188;-71
2022/07/29 10:07:54;;;;;;;7.10;4.55;;;;;;;;;;5047501;28;20178;-70
2022/07/29 10:10:28;;;;;;;6.72;4.47;;;;;;;;;;5051867;28;20554;-70
2022/07/29 10:13:13;;;;;;;10.38;4.85;;;;;;;;;;5048003;28;20201;-70
2022/07/29 10:15:43;;;;;;;8.15;5.18;;;;;;;;;;5053710;28;20184;-70
2022/07/29 10:18:09;;;;;;;9.00;5.43;;;;;;;;;;5053270;28;20235;-70
2022/07/29 10:20:35;;;;;;;8.23;5.25;;;;;;;;;;5048194;28;20177;-71
2022/07/29 10:23:01;;;;;;;7.60;4.55;;;;;;;;;;5070143;28;20613;-70
2022/07/29 10:25:26;;;;;;;9.52;4.97;;;;;;;;;;5070028;28;20230;-69
2022/07/29 10:27:53;;;;;;;8.65;5.00;;;;;;;;;;5053332;28;20227;-71
2022/07/29 10:30:19;;;;;;;5.22;4.20;;;;;;;;;;5058405;28;20181;-71
2022/07/29 10:32:51;;;;;;;8.23;4.07;;;;;;;;;;5056114;28;20213;-71
2022/07/29 10:36:10;;;;;;;10.93;5.10;;;;;;;;;;5053886;28;20185;-71
2022/07/29 10:38:59;;;;;;;9.32;4.45;;;;;;;;;;5029620;28;20596;-71
2022/07/29 10:41:36;;;;;;;7.97;4.55;;;;;;;;;;5051081;28;20236;-71
2022/07/29 10:44:06;;;;;;;7.32;4.13;;;;;;;;;;5063843;28;20189;-71
2022/07/29 10:46:40;;;;;;;8.10;4.53;;;;;;;;;;5055133;28;20264;-71
2022/07/29 10:49:11;;;;;;;6.63;4.15;;;;;;;;;;5070194;28;20193;-71
2022/07/29 10:51:57;;;;;;;9.18;4.50;;;;;;;;;;5059073;28;20639;-71
2022/07/29 10:54:35;;;;;;;5.97;4.10;;;;;;;;;;5058359;28;20222;-71
2022/07/29 10:57:15;;;;;;;7.10;3.75;;;;;;;;;;5064586;28;20185;-71
2022/07/29 11:00:10;;;;;;;6.78;3.70;;;;;;;;;;5060993;28;20246;-71
2022/07/29 11:02:35;;;;;;;9.90;4.43;;;;;;;;;;5064168;28;20172;-71
2022/07/29 11:05:17;;;;;;;13.40;4.25;;;;;;;;;;5055744;28;20181;-71
2022/07/29 11:08:22;;;;;;;10.50;4.53;;;;;;;;;;5056384;28;20184;-71
2022/07/29 11:10:53;;;;;;;7.90;4.53;;;;;;;;;;5053725;28;20585;-72
2022/07/29 11:13:43;;;;;;;6.97;4.53;;;;;;;;;;5052697;28;20567;-71
2022/07/29 11:16:09;;;;;;;8.25;3.95;;;;;;;;;;5058045;28;20687;-71
2022/07/29 11:18:34;;;;;;;5.93;3.90;;;;;;;;;;5057152;28;20197;-72
2022/07/29 11:21:00;;;;;;;6.53;4.38;;;;;;;;;;5050666;28;20186;-71
2022/07/29 11:23:39;;;;;;;9.18;4.40;;;;;;;;;;5056017;28;20177;-71
2022/07/29 11:26:21;;;;;;;10.02;4.38;;;;;;;;;;5055775;28;20236;-71
2022/07/29 11:28:55;;;;;;;7.85;4.20;;;;;;;;;;5056252;28;20886;-73
2022/07/29 11:31:39;;;;;;;8.20;4.65;;;;;;;;;;5050236;28;20220;-71
2022/07/29 11:34:29;;;;;;;7.45;4.63;;;;;;;;;;5058899;28;20176;-69
2022/07/29 11:37:06;;;;;;;6.05;3.35;;;;;;;;;;5058167;28;20820;-71
2022/07/29 11:39:32;;;;;;;9.48;4.07;;;;;;;;;;5056432;28;20229;-69
2022/07/29 11:42:16;;;;;;;7.82;4.35;;;;;;;;;;5050704;28;20230;-76
2022/07/29 11:44:53;;;;;;;9.05;3.97;;;;;;;;;;4359849;28;10000459;-73
2022/07/29 11:47:20;;;;;;;8.27;3.97;;;;;;;;;;5060357;28;20341;-72
2022/07/29 11:49:45;;;;;;;7.60;3.47;;;;;;;;;;5055984;28;20187;-76
2022/07/29 11:52:11;;;;;;;8.98;3.92;;;;;;;;;;5053218;28;20203;-71
2022/07/29 11:54:39;;;;;;;5.25;3.75;;;;;;;;;;5055152;28;20181;-68
2022/07/29 11:57:06;;;;;;;8.20;4.10;;;;;;;;;;5048042;28;20204;-70
2022/07/29 11:59:39;;;;;;;9.48;3.20;;;;;;;;;;5047525;28;20208;-69
2022/07/29 12:02:04;;;;;;;7.05;3.95;;;;;;;;;;5048491;28;20611;-68
2022/07/29 12:04:30;;;;;;;7.72;3.67;;;;;;;;;;5051289;28;20177;-68
2022/07/29 12:06:56;;;;;;;7.05;3.35;;;;;;;;;;5048892;28;20189;-68
2022/07/29 12:09:23;;;;;;;9.68;3.22;;;;;;;;;;5045852;28;21283;-68
2022/07/29 12:11:55;;;;;;;6.65;2.95;;;;;;;;;;5050172;28;20216;-68
2022/07/29 12:14:45;;;;;;;5.93;2.58;;;;;;;;;;5046695;28;20217;-67
2022/07/29 12:17:28;;;;;;;8.50;2.80;;;;;;;;;;5048546;28;20649;-68
2022/07/29 12:19:59;;;;;;;6.40;2.50;;;;;;;;;;5045008;28;20191;-71
2022/07/29 12:22:37;;;;;;;9.73;2.88;;;;;;;;;;5053703;28;20188;-68
2022/07/29 12:25:15;;;;;;;7.47;3.17;;;;;;;;;;5055637;28;20323;-72
2022/07/29 12:27:41;;;;;;;5.47;2.90;;;;;;;;;;5055938;28;20307;-68
2022/07/29 12:30:12;;;;;;;5.95;3.33;;;;;;;;;;5051814;28;20181;-70
2022/07/29 12:32:48;;;;;;;6.38;3.25;;;;;;;;;;5047574;28;20208;-69
2022/07/29 12:35:22;;;;;;;5.45;3.25;;;;;;;;;;5049880;28;20693;-69
2022/07/29 12:37:49;;;;;;;6.05;3.38;;;;;;;;;;5057284;28;20193;-69
2022/07/29 12:40:16;;;;;;;5.68;2.95;;;;;;;;;;5056570;28;20181;-69
2022/07/29 12:43:20;;;;;;;7.82;3.53;;;;;;;;;;5048567;28;20201;-69
2022/07/29 12:45:53;;;;;;;5.93;3.13;;;;;;;;;;5058905;28;20184;-68
2022/07/29 12:48:35;;;;;;;6.30;3.20;;;;;;;;;;5055729;28;20181;-69
2022/07/29 12:51:02;;;;;;;7.43;3.25;;;;;;;;;;5055225;28;20172;-68
2022/07/29 12:53:28;;;;;;;5.45;2.92;;;;;;;;;;5055245;28;20322;-70
2022/07/29 12:55:55;;;;;;;7.13;3.25;;;;;;;;;;5050237;28;20182;-69
2022/07/29 12:58:38;;;;;;;7.60;3.03;;;;;;;;;;5056548;28;20196;-68
2022/07/29 13:01:07;;;;;;;7.47;2.80;;;;;;;;;;5051148;28;20185;-69
2022/07/29 13:03:48;;;;;;;9.38;2.53;;;;;;;;;;5058802;28;20185;-75
2022/07/29 13:06:32;;;;;;;8.40;2.42;;;;;;;;;;5060926;28;20692;-68
2022/07/29 13:09:02;;;;;;;7.50;2.88;;;;;;;;;;5054476;28;20176;-70
2022/07/29 13:11:39;;;;;;;8.00;3.03;;;;;;;;;;5053415;28;20212;-69
2022/07/29 13:14:05;;;;;;;6.30;2.80;;;;;;;;;;4701696;28;9999713;-69
2022/07/29 13:16:30;;;;;;;6.72;2.65;;;;;;;;;;5050971;28;20957;-69
2022/07/29 13:19:10;;;;;;;5.97;2.63;;;;;;;;;;5058152;28;20192;-69
2022/07/29 13:21:37;;;;;;;8.02;2.30;;;;;;;;;;5049104;28;20346;-71
2022/07/29 13:24:03;;;;;;;7.40;2.38;;;;;;;;;;5047385;28;20201;-69
2022/07/29 13:26:29;;;;;;;10.63;2.78;;;;;;;;;;5049200;28;20185;-69
2022/07/29 13:28:54;;;;;;;5.93;2.28;;;;;;;;;;5051809;28;20192;-69
2022/07/29 13:31:21;;;;;;;7.07;1.65;;;;;;;;;;5045332;28;20242;-69
2022/07/29 13:33:47;;;;;;;5.97;1.92;;;;;;;;;;5046926;28;20656;-68
2022/07/29 13:36:12;;;;;;;5.55;1.77;;;;;;;;;;5051545;28;20169;-68
2022/07/29 13:38:38;;;;;;;4.75;2.20;;;;;;;;;;5046547;28;20196;-69
2022/07/29 13:41:03;;;;;;;3.33;1.63;;;;;;;;;;5046661;28;20208;-69
2022/07/29 13:43:29;;;;;;;7.75;1.90;;;;;;;;;;5051866;28;20263;-70
2022/07/29 13:45:55;;;;;;;4.22;1.75;;;;;;;;;;5061743;28;20270;-68
2022/07/29 13:48:20;;;;;;;3.50;1.80;;;;;;;;;;5057026;28;20182;-69
2022/07/29 13:50:46;;;;;;;4.18;2.10;;;;;;;;;;5060933;28;20180;-69
2022/07/29 13:53:12;;;;;;;4.97;1.90;;;;;;;;;;5050588;28;20205;-69
2022/07/29 13:55:37;;;;;;;5.57;1.92;;;;;;;;;;5048581;28;20178;-69
2022/07/29 13:58:03;;;;;;;6.10;2.10;;;;;;;;;;5049562;28;20623;-68
2022/07/29 14:00:28;;;;;;;3.90;2.00;;;;;;;;;;5047670;28;20189;-68
2022/07/29 14:02:54;;;;;;;7.32;1.63;;;;;;;;;;5050379;28;21836;-68
2022/07/29 14:05:19;;;;;;;4.15;1.55;;;;;;;;;;5052742;28;20205;-69
2022/07/29 14:07:44;;;;;;;4.60;2.00;;;;;;;;;;5048494;28;20216;-68
2022/07/29 14:10:10;;;;;;;4.70;1.73;;;;;;;;;;5048619;28;20706;-68
2022/07/29 14:12:36;;;;;;;3.78;1.80;;;;;;;;;;5050823;28;20576;-68
2022/07/29 14:15:01;;;;;;;3.10;1.63;;;;;;;;;;5048040;28;20185;-67
2022/07/29 14:17:26;;;;;;;4.55;1.70;;;;;;;;;;5050929;28;20174;-68
2022/07/29 14:19:52;;;;;;;5.82;1.73;;;;;;;;;;5054615;28;20181;-67
2022/07/29 14:22:18;;;;;;;4.07;1.98;;;;;;;;;;5062719;28;20268;-66
2022/07/29 14:24:44;;;;;;;5.45;1.92;;;;;;;;;;5055485;28;20229;-67
2022/07/29 14:27:09;;;;;;;5.32;2.08;;;;;;;;;;5056317;28;20196;-68
2022/07/29 14:29:35;;;;;;;6.03;2.28;;;;;;;;;;5054208;28;20319;-67
2022/07/29 14:32:00;;;;;;;6.78;1.75;;;;;;;;;;5065476;28;20307;-67
2022/07/29 14:34:26;;;;;;;5.35;1.85;;;;;;;;;;5054709;28;20272;-67
2022/07/29 14:36:53;;;;;;;5.65;1.67;;;;;;;;;;5056118;28;20186;-67
2022/07/29 14:39:18;;;;;;;3.10;1.73;;;;;;;;;;5049967;28;20633;-67
2022/07/29 14:41:44;;;;;;;6.35;2.13;;;;;;;;;;5048406;28;20192;-67
2022/07/29 14:44:09;;;;;;;8.73;2.53;;;;;;;;;;5055673;28;20819;-67
2022/07/29 14:46:35;;;;;;;7.57;1.90;;;;;;;;;;5052798;28;20201;-67
2022/07/29 14:49:00;;;;;;;4.90;1.70;;;;;;;;;;5049638;28;20657;-68
2022/07/29 14:51:25;;;;;;;8.95;1.65;;;;;;;;;;5052321;28;20213;-66
2022/07/29 14:53:51;;;;;;;7.80;1.80;;;;;;;;;;5048175;28;20641;-67